sensor_id;sensor_type;location;lat;lon;timestamp;P1;durP1;ratioP1;P2;durP2;ratioP2
11618;SDS011;5865;48.776;9.280;2023-01-16T00:01:20;2.83;;;1.00;;
11618;SDS011;5865;48.776;9.280;2023-01-16T00:03:48;0.73;;;0.60;;
11618;SDS011;5865;48.776;9.280;2023-01-16T00:06:15;2.70;;;1.20;;
11618;SDS011;5865;48.776;9.280;2023-01-16T00:08:44;2.23;;;0.87;;
11618;SDS011;5865;48.776;9.280;2023-01-16T00:11:11;2.60;;;1.20;;
11618;SDS011;5865;48.776;9.280;2023-01-16T00:13:38;2.60;;;0.83;;
11618;SDS011;5865;48.776;9.280;2023-01-16T00:16:06;2.27;;;0.73;;
11618;SDS011;5865;48.776;9.280;2023-01-16T00:18:33;3.67;;;1.30;;
11618;SDS011;5865;48.776;9.280;2023-01-16T00:21:00;2.33;;;0.87;;
11618;SDS011;5865;48.776;9.280;2023-01-16T00:23:28;4.00;;;1.37;;
11618;SDS011;5865;48.776;9.280;2023-01-16T00:25:56;3.50;;;1.17;;
11618;SDS011;5865;48.776;9.280;2023-01-16T00:28:23;1.37;;;0.70;;
11618;SDS011;5865;48.776;9.280;2023-01-16T00:30:51;5.27;;;1.60;;
11618;SDS011;5865;48.776;9.280;2023-01-16T00:33:18;2.83;;;0.90;;
11618;SDS011;5865;48.776;9.280;2023-01-16T00:35:46;1.20;;;0.93;;
11618;SDS011;5865;48.776;9.280;2023-01-16T00:38:13;2.70;;;0.90;;
11618;SDS011;5865;48.776;9.280;2023-01-16T00:40:40;4.53;;;1.23;;
11618;SDS011;5865;48.776;9.280;2023-01-16T00:43:09;3.17;;;1.00;;
11618;SDS011;5865;48.776;9.280;2023-01-16T00:45:36;3.67;;;0.93;;
11618;SDS011;5865;48.776;9.280;2023-01-16T00:48:04;2.27;;;0.80;;
11618;SDS011;5865;48.776;9.280;2023-01-16T00:50:32;1.17;;;0.70;;
11618;SDS011;5865;48.776;9.280;2023-01-16T00:52:59;2.97;;;0.90;;
11618;SDS011;5865;48.776;9.280;2023-01-16T00:55:27;2.47;;;0.60;;
11618;SDS011;5865;48.776;9.280;2023-01-16T00:57:54;2.93;;;0.73;;
11618;SDS011;5865;48.776;9.280;2023-01-16T01:00:22;1.70;;;0.80;;
11618;SDS011;5865;48.776;9.280;2023-01-16T01:02:50;2.53;;;0.83;;
11618;SDS011;5865;48.776;9.280;2023-01-16T01:05:18;1.70;;;1.03;;
11618;SDS011;5865;48.776;9.280;2023-01-16T01:07:45;1.70;;;0.90;;
11618;SDS011;5865;48.776;9.280;2023-01-16T01:10:12;2.57;;;1.13;;
11618;SDS011;5865;48.776;9.280;2023-01-16T01:12:40;2.93;;;1.10;;
11618;SDS011;5865;48.776;9.280;2023-01-16T01:15:07;3.70;;;1.33;;
11618;SDS011;5865;48.776;9.280;2023-01-16T01:17:36;2.37;;;1.10;;
11618;SDS011;5865;48.776;9.280;2023-01-16T01:20:04;2.90;;;1.03;;
11618;SDS011;5865;48.776;9.280;2023-01-16T01:22:32;2.37;;;1.00;;
11618;SDS011;5865;48.776;9.280;2023-01-16T01:24:59;2.97;;;1.00;;
11618;SDS011;5865;48.776;9.280;2023-01-16T01:27:26;3.27;;;1.10;;
11618;SDS011;5865;48.776;9.280;2023-01-16T01:29:53;4.40;;;1.20;;
11618;SDS011;5865;48.776;9.280;2023-01-16T01:32:20;2.13;;;1.13;;
11618;SDS011;5865;48.776;9.280;2023-01-16T01:34:49;1.87;;;1.10;;
11618;SDS011;5865;48.776;9.280;2023-01-16T01:37:16;2.43;;;0.73;;
11618;SDS011;5865;48.776;9.280;2023-01-16T01:39:43;1.40;;;1.00;;
11618;SDS011;5865;48.776;9.280;2023-01-16T01:42:11;6.00;;;1.20;;
11618;SDS011;5865;48.776;9.280;2023-01-16T01:44:56;1.40;;;0.90;;
11618;SDS011;5865;48.776;9.280;2023-01-16T01:47:27;2.30;;;0.80;;
11618;SDS011;5865;48.776;9.280;2023-01-16T01:49:59;1.67;;;1.10;;
11618;SDS011;5865;48.776;9.280;2023-01-16T01:52:28;3.93;;;1.30;;
11618;SDS011;5865;48.776;9.280;2023-01-16T01:54:58;3.00;;;1.00;;
11618;SDS011;5865;48.776;9.280;2023-01-16T01:57:30;2.00;;;0.83;;
11618;SDS011;5865;48.776;9.280;2023-01-16T02:00:00;1.57;;;0.90;;
11618;SDS011;5865;48.776;9.280;2023-01-16T02:02:38;2.63;;;0.87;;
11618;SDS011;5865;48.776;9.280;2023-01-16T02:05:10;3.90;;;1.03;;
11618;SDS011;5865;48.776;9.280;2023-01-16T02:07:40;3.13;;;1.10;;
11618;SDS011;5865;48.776;9.280;2023-01-16T02:10:10;1.87;;;0.80;;
11618;SDS011;5865;48.776;9.280;2023-01-16T02:12:39;2.47;;;0.97;;
11618;SDS011;5865;48.776;9.280;2023-01-16T02:15:07;2.27;;;0.90;;
11618;SDS011;5865;48.776;9.280;2023-01-16T02:17:34;1.50;;;1.00;;
11618;SDS011;5865;48.776;9.280;2023-01-16T02:20:21;4.13;;;1.00;;
11618;SDS011;5865;48.776;9.280;2023-01-16T02:26:08;1.67;;;1.10;;
11618;SDS011;5865;48.776;9.280;2023-01-16T02:31:50;2.57;;;1.00;;
11618;SDS011;5865;48.776;9.280;2023-01-16T02:34:30;2.97;;;1.10;;
11618;SDS011;5865;48.776;9.280;2023-01-16T02:37:11;3.53;;;1.10;;
11618;SDS011;5865;48.776;9.280;2023-01-16T02:39:42;3.80;;;1.23;;
11618;SDS011;5865;48.776;9.280;2023-01-16T02:42:13;3.57;;;1.10;;
11618;SDS011;5865;48.776;9.280;2023-01-16T02:44:45;2.40;;;1.00;;
11618;SDS011;5865;48.776;9.280;2023-01-16T02:47:19;4.27;;;1.23;;
11618;SDS011;5865;48.776;9.280;2023-01-16T02:49:53;1.60;;;1.10;;
11618;SDS011;5865;48.776;9.280;2023-01-16T02:52:30;3.50;;;1.10;;
11618;SDS011;5865;48.776;9.280;2023-01-16T02:55:01;3.20;;;1.27;;
11618;SDS011;5865;48.776;9.280;2023-01-16T02:57:33;4.57;;;1.13;;
11618;SDS011;5865;48.776;9.280;2023-01-16T03:00:02;2.70;;;0.90;;
11618;SDS011;5865;48.776;9.280;2023-01-16T03:02:31;3.17;;;0.97;;
11618;SDS011;5865;48.776;9.280;2023-01-16T03:04:59;1.67;;;1.00;;
11618;SDS011;5865;48.776;9.280;2023-01-16T03:07:37;4.00;;;0.80;;
11618;SDS011;5865;48.776;9.280;2023-01-16T03:10:29;1.07;;;0.70;;
11618;SDS011;5865;48.776;9.280;2023-01-16T03:13:17;3.10;;;1.10;;
11618;SDS011;5865;48.776;9.280;2023-01-16T03:16:04;0.90;;;0.80;;
11618;SDS011;5865;48.776;9.280;2023-01-16T03:18:45;2.10;;;1.00;;
11618;SDS011;5865;48.776;9.280;2023-01-16T03:21:20;2.27;;;1.10;;
11618;SDS011;5865;48.776;9.280;2023-01-16T03:23:57;3.87;;;0.90;;
11618;SDS011;5865;48.776;9.280;2023-01-16T03:26:30;3.93;;;1.17;;
11618;SDS011;5865;48.776;9.280;2023-01-16T03:29:05;4.00;;;0.97;;
11618;SDS011;5865;48.776;9.280;2023-01-16T03:31:36;3.33;;;1.00;;
11618;SDS011;5865;48.776;9.280;2023-01-16T03:34:12;2.43;;;1.30;;
11618;SDS011;5865;48.776;9.280;2023-01-16T03:36:46;2.97;;;1.03;;
11618;SDS011;5865;48.776;9.280;2023-01-16T03:39:21;2.90;;;0.93;;
11618;SDS011;5865;48.776;9.280;2023-01-16T03:41:51;2.70;;;1.00;;
11618;SDS011;5865;48.776;9.280;2023-01-16T03:44:22;3.17;;;1.07;;
11618;SDS011;5865;48.776;9.280;2023-01-16T03:46:54;2.40;;;0.87;;
11618;SDS011;5865;48.776;9.280;2023-01-16T03:49:27;2.00;;;0.90;;
11618;SDS011;5865;48.776;9.280;2023-01-16T03:51:58;1.30;;;0.80;;
11618;SDS011;5865;48.776;9.280;2023-01-16T03:54:31;1.40;;;0.70;;
11618;SDS011;5865;48.776;9.280;2023-01-16T03:57:04;1.63;;;0.90;;
11618;SDS011;5865;48.776;9.280;2023-01-16T03:59:35;1.90;;;0.90;;
11618;SDS011;5865;48.776;9.280;2023-01-16T04:02:04;1.97;;;0.90;;
11618;SDS011;5865;48.776;9.280;2023-01-16T04:04:40;2.57;;;1.03;;
11618;SDS011;5865;48.776;9.280;2023-01-16T04:07:12;2.73;;;1.13;;
11618;SDS011;5865;48.776;9.280;2023-01-16T04:09:47;3.37;;;1.10;;
11618;SDS011;5865;48.776;9.280;2023-01-16T04:12:17;2.13;;;0.90;;
11618;SDS011;5865;48.776;9.280;2023-01-16T04:14:48;4.83;;;1.10;;
11618;SDS011;5865;48.776;9.280;2023-01-16T04:17:21;1.40;;;0.73;;
11618;SDS011;5865;48.776;9.280;2023-01-16T04:19:50;2.57;;;1.00;;
11618;SDS011;5865;48.776;9.280;2023-01-16T04:22:18;3.47;;;1.30;;
11618;SDS011;5865;48.776;9.280;2023-01-16T04:24:47;1.80;;;1.00;;
11618;SDS011;5865;48.776;9.280;2023-01-16T04:27:15;1.70;;;0.90;;
11618;SDS011;5865;48.776;9.280;2023-01-16T04:29:43;0.90;;;0.77;;
11618;SDS011;5865;48.776;9.280;2023-01-16T04:32:10;1.17;;;0.80;;
11618;SDS011;5865;48.776;9.280;2023-01-16T04:34:37;2.97;;;0.80;;
11618;SDS011;5865;48.776;9.280;2023-01-16T04:37:06;2.63;;;1.00;;
11618;SDS011;5865;48.776;9.280;2023-01-16T04:39:33;2.20;;;0.80;;
11618;SDS011;5865;48.776;9.280;2023-01-16T04:42:01;1.30;;;0.63;;
11618;SDS011;5865;48.776;9.280;2023-01-16T04:44:28;1.67;;;0.60;;
11618;SDS011;5865;48.776;9.280;2023-01-16T04:46:55;0.60;;;0.60;;
11618;SDS011;5865;48.776;9.280;2023-01-16T04:49:22;1.77;;;1.00;;
11618;SDS011;5865;48.776;9.280;2023-01-16T04:51:49;2.40;;;0.80;;
11618;SDS011;5865;48.776;9.280;2023-01-16T04:54:18;2.27;;;0.97;;
11618;SDS011;5865;48.776;9.280;2023-01-16T04:56:46;2.63;;;0.80;;
11618;SDS011;5865;48.776;9.280;2023-01-16T04:59:13;0.90;;;0.80;;
11618;SDS011;5865;48.776;9.280;2023-01-16T05:01:41;2.13;;;0.90;;
11618;SDS011;5865;48.776;9.280;2023-01-16T05:04:09;3.50;;;0.90;;
11618;SDS011;5865;48.776;9.280;2023-01-16T05:06:38;1.10;;;0.73;;
11618;SDS011;5865;48.776;9.280;2023-01-16T05:09:05;3.03;;;0.87;;
11618;SDS011;5865;48.776;9.280;2023-01-16T05:11:34;2.67;;;1.00;;
11618;SDS011;5865;48.776;9.280;2023-01-16T05:14:01;2.27;;;0.90;;
11618;SDS011;5865;48.776;9.280;2023-01-16T05:16:30;1.37;;;0.80;;
11618;SDS011;5865;48.776;9.280;2023-01-16T05:18:57;1.10;;;0.80;;
11618;SDS011;5865;48.776;9.280;2023-01-16T05:21:25;2.20;;;0.90;;
11618;SDS011;5865;48.776;9.280;2023-01-16T05:23:52;1.60;;;0.70;;
11618;SDS011;5865;48.776;9.280;2023-01-16T05:26:19;1.83;;;0.80;;
11618;SDS011;5865;48.776;9.280;2023-01-16T05:28:49;1.37;;;0.70;;
11618;SDS011;5865;48.776;9.280;2023-01-16T05:31:16;0.80;;;0.60;;
11618;SDS011;5865;48.776;9.280;2023-01-16T05:33:43;2.70;;;1.03;;
11618;SDS011;5865;48.776;9.280;2023-01-16T05:36:11;2.43;;;0.90;;
11618;SDS011;5865;48.776;9.280;2023-01-16T05:38:38;0.80;;;0.67;;
11618;SDS011;5865;48.776;9.280;2023-01-16T05:41:05;2.87;;;1.27;;
11618;SDS011;5865;48.776;9.280;2023-01-16T05:43:33;2.97;;;0.90;;
11618;SDS011;5865;48.776;9.280;2023-01-16T05:46:02;1.37;;;0.70;;
11618;SDS011;5865;48.776;9.280;2023-01-16T05:48:29;0.80;;;0.80;;
11618;SDS011;5865;48.776;9.280;2023-01-16T05:50:57;2.87;;;1.23;;
11618;SDS011;5865;48.776;9.280;2023-01-16T05:53:24;2.70;;;0.90;;
11618;SDS011;5865;48.776;9.280;2023-01-16T05:55:57;2.33;;;0.80;;
11618;SDS011;5865;48.776;9.280;2023-01-16T05:58:26;3.90;;;1.57;;
11618;SDS011;5865;48.776;9.280;2023-01-16T06:00:55;3.20;;;1.73;;
11618;SDS011;5865;48.776;9.280;2023-01-16T06:03:23;2.93;;;1.40;;
11618;SDS011;5865;48.776;9.280;2023-01-16T06:05:51;2.27;;;0.80;;
11618;SDS011;5865;48.776;9.280;2023-01-16T06:08:19;2.23;;;1.03;;
11618;SDS011;5865;48.776;9.280;2023-01-16T06:10:46;2.80;;;1.10;;
11618;SDS011;5865;48.776;9.280;2023-01-16T06:13:14;2.90;;;0.90;;
11618;SDS011;5865;48.776;9.280;2023-01-16T06:15:42;3.07;;;0.93;;
11618;SDS011;5865;48.776;9.280;2023-01-16T06:18:09;2.40;;;1.20;;
11618;SDS011;5865;48.776;9.280;2023-01-16T06:20:41;2.33;;;0.87;;
11618;SDS011;5865;48.776;9.280;2023-01-16T06:23:08;1.20;;;0.90;;
11618;SDS011;5865;48.776;9.280;2023-01-16T06:25:35;4.73;;;1.10;;
11618;SDS011;5865;48.776;9.280;2023-01-16T06:28:03;2.10;;;1.27;;
11618;SDS011;5865;48.776;9.280;2023-01-16T06:30:31;1.57;;;0.97;;
11618;SDS011;5865;48.776;9.280;2023-01-16T06:32:58;2.53;;;1.10;;
11618;SDS011;5865;48.776;9.280;2023-01-16T06:35:25;2.70;;;0.90;;
11618;SDS011;5865;48.776;9.280;2023-01-16T06:37:54;1.17;;;0.93;;
11618;SDS011;5865;48.776;9.280;2023-01-16T06:40:22;2.40;;;1.03;;
11618;SDS011;5865;48.776;9.280;2023-01-16T06:42:49;3.37;;;1.10;;
11618;SDS011;5865;48.776;9.280;2023-01-16T06:45:16;3.13;;;1.20;;
11618;SDS011;5865;48.776;9.280;2023-01-16T06:47:50;2.63;;;1.20;;
11618;SDS011;5865;48.776;9.280;2023-01-16T06:50:18;2.77;;;1.20;;
11618;SDS011;5865;48.776;9.280;2023-01-16T06:52:45;1.63;;;1.00;;
11618;SDS011;5865;48.776;9.280;2023-01-16T06:55:15;3.57;;;1.20;;
11618;SDS011;5865;48.776;9.280;2023-01-16T06:57:51;1.87;;;1.20;;
11618;SDS011;5865;48.776;9.280;2023-01-16T07:00:19;2.20;;;1.20;;
11618;SDS011;5865;48.776;9.280;2023-01-16T07:02:49;3.33;;;1.30;;
11618;SDS011;5865;48.776;9.280;2023-01-16T07:05:19;1.87;;;1.13;;
11618;SDS011;5865;48.776;9.280;2023-01-16T07:07:47;3.57;;;1.00;;
11618;SDS011;5865;48.776;9.280;2023-01-16T07:10:16;3.60;;;1.13;;
11618;SDS011;5865;48.776;9.280;2023-01-16T07:12:45;2.30;;;1.23;;
11618;SDS011;5865;48.776;9.280;2023-01-16T07:15:12;1.57;;;1.10;;
11618;SDS011;5865;48.776;9.280;2023-01-16T07:17:57;2.17;;;1.10;;
11618;SDS011;5865;48.776;9.280;2023-01-16T07:20:42;3.30;;;1.60;;
11618;SDS011;5865;48.776;9.280;2023-01-16T07:23:35;1.53;;;1.20;;
11618;SDS011;5865;48.776;9.280;2023-01-16T07:26:04;3.20;;;1.43;;
11618;SDS011;5865;48.776;9.280;2023-01-16T07:28:33;3.07;;;1.40;;
11618;SDS011;5865;48.776;9.280;2023-01-16T07:31:01;2.07;;;1.03;;
11618;SDS011;5865;48.776;9.280;2023-01-16T07:33:30;2.50;;;1.13;;
11618;SDS011;5865;48.776;9.280;2023-01-16T07:35:57;1.50;;;1.10;;
11618;SDS011;5865;48.776;9.280;2023-01-16T07:38:24;3.73;;;1.30;;
11618;SDS011;5865;48.776;9.280;2023-01-16T07:40:51;5.27;;;1.30;;
11618;SDS011;5865;48.776;9.280;2023-01-16T07:43:20;1.60;;;1.20;;
11618;SDS011;5865;48.776;9.280;2023-01-16T07:45:48;1.53;;;1.00;;
11618;SDS011;5865;48.776;9.280;2023-01-16T07:48:17;2.67;;;1.40;;
11618;SDS011;5865;48.776;9.280;2023-01-16T07:50:48;3.63;;;1.40;;
11618;SDS011;5865;48.776;9.280;2023-01-16T07:53:19;3.17;;;1.57;;
11618;SDS011;5865;48.776;9.280;2023-01-16T07:55:48;2.80;;;1.50;;
11618;SDS011;5865;48.776;9.280;2023-01-16T07:58:15;3.63;;;1.50;;
11618;SDS011;5865;48.776;9.280;2023-01-16T08:00:44;2.67;;;1.37;;
11618;SDS011;5865;48.776;9.280;2023-01-16T08:03:11;3.40;;;1.13;;
11618;SDS011;5865;48.776;9.280;2023-01-16T08:05:39;2.20;;;1.40;;
11618;SDS011;5865;48.776;9.280;2023-01-16T08:08:08;3.37;;;1.50;;
11618;SDS011;5865;48.776;9.280;2023-01-16T08:10:35;2.03;;;1.30;;
11618;SDS011;5865;48.776;9.280;2023-01-16T08:13:03;1.80;;;1.27;;
11618;SDS011;5865;48.776;9.280;2023-01-16T08:15:30;4.00;;;1.30;;
11618;SDS011;5865;48.776;9.280;2023-01-16T08:17:58;1.37;;;0.90;;
11618;SDS011;5865;48.776;9.280;2023-01-16T08:20:25;1.57;;;1.13;;
11618;SDS011;5865;48.776;9.280;2023-01-16T08:22:52;1.77;;;1.10;;
11618;SDS011;5865;48.776;9.280;2023-01-16T08:25:22;2.10;;;1.30;;
11618;SDS011;5865;48.776;9.280;2023-01-16T08:27:49;1.77;;;1.10;;
11618;SDS011;5865;48.776;9.280;2023-01-16T08:30:17;2.47;;;0.83;;
11618;SDS011;5865;48.776;9.280;2023-01-16T08:32:44;2.33;;;1.00;;
11618;SDS011;5865;48.776;9.280;2023-01-16T08:35:13;1.93;;;1.07;;
11618;SDS011;5865;48.776;9.280;2023-01-16T08:37:43;1.47;;;1.20;;
11618;SDS011;5865;48.776;9.280;2023-01-16T08:40:14;2.80;;;1.10;;
11618;SDS011;5865;48.776;9.280;2023-01-16T08:42:41;4.47;;;1.30;;
11618;SDS011;5865;48.776;9.280;2023-01-16T08:45:26;1.03;;;0.80;;
11618;SDS011;5865;48.776;9.280;2023-01-16T08:48:11;1.40;;;0.90;;
11618;SDS011;5865;48.776;9.280;2023-01-16T08:51:00;3.07;;;1.00;;
11618;SDS011;5865;48.776;9.280;2023-01-16T08:53:44;2.13;;;1.10;;
11618;SDS011;5865;48.776;9.280;2023-01-16T08:56:12;0.97;;;0.83;;
11618;SDS011;5865;48.776;9.280;2023-01-16T08:58:39;2.03;;;1.10;;
11618;SDS011;5865;48.776;9.280;2023-01-16T09:01:06;1.97;;;0.90;;
11618;SDS011;5865;48.776;9.280;2023-01-16T09:03:33;1.73;;;0.90;;
11618;SDS011;5865;48.776;9.280;2023-01-16T09:06:04;1.77;;;0.90;;
11618;SDS011;5865;48.776;9.280;2023-01-16T09:08:31;2.60;;;1.00;;
11618;SDS011;5865;48.776;9.280;2023-01-16T09:10:59;1.20;;;0.90;;
11618;SDS011;5865;48.776;9.280;2023-01-16T09:13:43;1.10;;;0.83;;
11618;SDS011;5865;48.776;9.280;2023-01-16T09:16:22;1.03;;;0.90;;
11618;SDS011;5865;48.776;9.280;2023-01-16T09:18:50;1.53;;;1.00;;
11618;SDS011;5865;48.776;9.280;2023-01-16T09:21:19;2.43;;;1.20;;
11618;SDS011;5865;48.776;9.280;2023-01-16T09:23:49;1.20;;;1.00;;
11618;SDS011;5865;48.776;9.280;2023-01-16T09:26:16;2.30;;;1.20;;
11618;SDS011;5865;48.776;9.280;2023-01-16T09:28:43;1.50;;;1.00;;
11618;SDS011;5865;48.776;9.280;2023-01-16T09:31:11;1.67;;;1.00;;
11618;SDS011;5865;48.776;9.280;2023-01-16T09:33:38;1.20;;;0.83;;
11618;SDS011;5865;48.776;9.280;2023-01-16T09:36:14;1.67;;;0.70;;
11618;SDS011;5865;48.776;9.280;2023-01-16T09:38:51;0.80;;;0.80;;
11618;SDS011;5865;48.776;9.280;2023-01-16T09:41:20;0.83;;;0.70;;
11618;SDS011;5865;48.776;9.280;2023-01-16T09:44:06;1.10;;;0.80;;
11618;SDS011;5865;48.776;9.280;2023-01-16T09:46:36;1.03;;;0.60;;
11618;SDS011;5865;48.776;9.280;2023-01-16T09:49:11;1.77;;;0.80;;
11618;SDS011;5865;48.776;9.280;2023-01-16T09:51:47;1.87;;;0.90;;
11618;SDS011;5865;48.776;9.280;2023-01-16T09:54:39;0.70;;;0.67;;
11618;SDS011;5865;48.776;9.280;2023-01-16T09:57:26;1.20;;;0.83;;
11618;SDS011;5865;48.776;9.280;2023-01-16T10:00:12;1.73;;;0.87;;
11618;SDS011;5865;48.776;9.280;2023-01-16T10:02:42;0.70;;;0.57;;
11618;SDS011;5865;48.776;9.280;2023-01-16T10:05:10;1.77;;;0.63;;
11618;SDS011;5865;48.776;9.280;2023-01-16T10:07:42;1.07;;;0.70;;
11618;SDS011;5865;48.776;9.280;2023-01-16T10:10:31;1.47;;;0.80;;
11618;SDS011;5865;48.776;9.280;2023-01-16T10:13:13;0.63;;;0.63;;
11618;SDS011;5865;48.776;9.280;2023-01-16T10:15:50;0.83;;;0.70;;
11618;SDS011;5865;48.776;9.280;2023-01-16T10:18:25;0.53;;;0.53;;
11618;SDS011;5865;48.776;9.280;2023-01-16T10:23:57;0.90;;;0.60;;
11618;SDS011;5865;48.776;9.280;2023-01-16T10:26:30;0.67;;;0.47;;
11618;SDS011;5865;48.776;9.280;2023-01-16T10:29:06;1.20;;;0.67;;
11618;SDS011;5865;48.776;9.280;2023-01-16T10:31:44;0.83;;;0.73;;
11618;SDS011;5865;48.776;9.280;2023-01-16T10:34:15;0.70;;;0.70;;
11618;SDS011;5865;48.776;9.280;2023-01-16T10:36:47;3.13;;;1.00;;
11618;SDS011;5865;48.776;9.280;2023-01-16T10:39:17;1.60;;;0.60;;
11618;SDS011;5865;48.776;9.280;2023-01-16T10:41:48;1.07;;;0.70;;
11618;SDS011;5865;48.776;9.280;2023-01-16T10:44:36;0.60;;;0.60;;
11618;SDS011;5865;48.776;9.280;2023-01-16T10:47:23;0.50;;;0.47;;
11618;SDS011;5865;48.776;9.280;2023-01-16T10:50:11;0.90;;;0.60;;
11618;SDS011;5865;48.776;9.280;2023-01-16T10:52:38;0.63;;;0.30;;
11618;SDS011;5865;48.776;9.280;2023-01-16T10:55:07;0.67;;;0.40;;
11618;SDS011;5865;48.776;9.280;2023-01-16T10:57:41;0.80;;;0.40;;
11618;SDS011;5865;48.776;9.280;2023-01-16T11:00:13;0.83;;;0.70;;
11618;SDS011;5865;48.776;9.280;2023-01-16T11:03:02;0.83;;;0.73;;
11618;SDS011;5865;48.776;9.280;2023-01-16T11:05:37;1.87;;;0.93;;
11618;SDS011;5865;48.776;9.280;2023-01-16T11:08:06;0.40;;;0.40;;
11618;SDS011;5865;48.776;9.280;2023-01-16T11:10:34;0.43;;;0.43;;
11618;SDS011;5865;48.776;9.280;2023-01-16T11:13:03;0.43;;;0.40;;
11618;SDS011;5865;48.776;9.280;2023-01-16T11:16:01;1.83;;;1.00;;
11618;SDS011;5865;48.776;9.280;2023-01-16T11:18:45;0.73;;;0.53;;
11618;SDS011;5865;48.776;9.280;2023-01-16T11:21:14;1.20;;;0.90;;
11618;SDS011;5865;48.776;9.280;2023-01-16T11:23:44;0.70;;;0.70;;
11618;SDS011;5865;48.776;9.280;2023-01-16T11:26:14;0.60;;;0.60;;
11618;SDS011;5865;48.776;9.280;2023-01-16T11:28:51;0.50;;;0.50;;
11618;SDS011;5865;48.776;9.280;2023-01-16T11:31:21;0.53;;;0.50;;
11618;SDS011;5865;48.776;9.280;2023-01-16T11:33:54;0.40;;;0.40;;
11618;SDS011;5865;48.776;9.280;2023-01-16T11:36:26;0.70;;;0.40;;
11618;SDS011;5865;48.776;9.280;2023-01-16T11:38:56;1.17;;;0.60;;
11618;SDS011;5865;48.776;9.280;2023-01-16T11:41:26;0.57;;;0.50;;
11618;SDS011;5865;48.776;9.280;2023-01-16T11:44:05;1.23;;;0.60;;
11618;SDS011;5865;48.776;9.280;2023-01-16T11:46:56;0.70;;;0.30;;
11618;SDS011;5865;48.776;9.280;2023-01-16T11:49:28;0.63;;;0.20;;
11618;SDS011;5865;48.776;9.280;2023-01-16T11:52:02;0.40;;;0.40;;
11618;SDS011;5865;48.776;9.280;2023-01-16T11:54:32;0.60;;;0.40;;
11618;SDS011;5865;48.776;9.280;2023-01-16T12:06:15;1.00;;;0.60;;
11618;SDS011;5865;48.776;9.280;2023-01-16T12:08:59;1.40;;;0.40;;
11618;SDS011;5865;48.776;9.280;2023-01-16T12:15:03;0.80;;;0.50;;
11618;SDS011;5865;48.776;9.280;2023-01-16T12:17:41;0.30;;;0.30;;
11618;SDS011;5865;48.776;9.280;2023-01-16T12:20:26;0.87;;;0.43;;
11618;SDS011;5865;48.776;9.280;2023-01-16T12:23:01;0.53;;;0.50;;
11618;SDS011;5865;48.776;9.280;2023-01-16T12:25:35;0.53;;;0.53;;
11618;SDS011;5865;48.776;9.280;2023-01-16T12:28:07;1.33;;;0.60;;
11618;SDS011;5865;48.776;9.280;2023-01-16T12:30:41;1.63;;;0.80;;
11618;SDS011;5865;48.776;9.280;2023-01-16T12:33:19;1.30;;;0.80;;
11618;SDS011;5865;48.776;9.280;2023-01-16T12:35:56;1.30;;;0.80;;
11618;SDS011;5865;48.776;9.280;2023-01-16T12:38:31;0.70;;;0.50;;
11618;SDS011;5865;48.776;9.280;2023-01-16T12:41:11;0.70;;;0.70;;
11618;SDS011;5865;48.776;9.280;2023-01-16T12:47:17;0.93;;;0.60;;
11618;SDS011;5865;48.776;9.280;2023-01-16T12:55:58;1.77;;;0.63;;
11618;SDS011;5865;48.776;9.280;2023-01-16T12:58:30;1.00;;;0.80;;
11618;SDS011;5865;48.776;9.280;2023-01-16T13:01:05;0.60;;;0.50;;
11618;SDS011;5865;48.776;9.280;2023-01-16T13:06:21;1.13;;;0.90;;
11618;SDS011;5865;48.776;9.280;2023-01-16T13:09:08;0.67;;;0.60;;
11618;SDS011;5865;48.776;9.280;2023-01-16T13:11:49;1.47;;;1.10;;
11618;SDS011;5865;48.776;9.280;2023-01-16T13:14:41;0.70;;;0.50;;
11618;SDS011;5865;48.776;9.280;2023-01-16T13:17:12;1.13;;;0.60;;
11618;SDS011;5865;48.776;9.280;2023-01-16T13:19:42;1.07;;;0.60;;
11618;SDS011;5865;48.776;9.280;2023-01-16T13:22:14;0.50;;;0.40;;
11618;SDS011;5865;48.776;9.280;2023-01-16T13:24:46;0.50;;;0.50;;
11618;SDS011;5865;48.776;9.280;2023-01-16T13:27:22;1.20;;;0.60;;
11618;SDS011;5865;48.776;9.280;2023-01-16T13:29:58;2.67;;;1.30;;
11618;SDS011;5865;48.776;9.280;2023-01-16T13:32:29;1.10;;;0.90;;
11618;SDS011;5865;48.776;9.280;2023-01-16T13:35:04;0.77;;;0.77;;
11618;SDS011;5865;48.776;9.280;2023-01-16T13:37:46;0.30;;;0.30;;
11618;SDS011;5865;48.776;9.280;2023-01-16T13:40:32;0.27;;;0.27;;
11618;SDS011;5865;48.776;9.280;2023-01-16T13:43:02;0.50;;;0.50;;
11618;SDS011;5865;48.776;9.280;2023-01-16T13:45:44;1.43;;;0.50;;
11618;SDS011;5865;48.776;9.280;2023-01-16T13:48:19;0.63;;;0.57;;
11618;SDS011;5865;48.776;9.280;2023-01-16T13:50:49;1.30;;;0.70;;
11618;SDS011;5865;48.776;9.280;2023-01-16T13:53:19;1.10;;;1.00;;
11618;SDS011;5865;48.776;9.280;2023-01-16T13:55:48;1.00;;;0.40;;
11618;SDS011;5865;48.776;9.280;2023-01-16T13:58:17;1.73;;;0.50;;
11618;SDS011;5865;48.776;9.280;2023-01-16T14:00:46;0.57;;;0.50;;
11618;SDS011;5865;48.776;9.280;2023-01-16T14:03:16;0.77;;;0.60;;
11618;SDS011;5865;48.776;9.280;2023-01-16T14:05:49;0.87;;;0.53;;
11618;SDS011;5865;48.776;9.280;2023-01-16T14:08:28;2.00;;;0.40;;
11618;SDS011;5865;48.776;9.280;2023-01-16T14:11:37;0.83;;;0.47;;
11618;SDS011;5865;48.776;9.280;2023-01-16T14:14:31;0.40;;;0.40;;
11618;SDS011;5865;48.776;9.280;2023-01-16T14:20:01;0.70;;;0.70;;
11618;SDS011;5865;48.776;9.280;2023-01-16T14:22:33;1.03;;;0.30;;
11618;SDS011;5865;48.776;9.280;2023-01-16T14:25:21;0.40;;;0.40;;
11618;SDS011;5865;48.776;9.280;2023-01-16T14:27:53;0.63;;;0.60;;
11618;SDS011;5865;48.776;9.280;2023-01-16T14:30:23;1.80;;;0.43;;
11618;SDS011;5865;48.776;9.280;2023-01-16T14:32:52;1.20;;;1.10;;
11618;SDS011;5865;48.776;9.280;2023-01-16T14:35:22;1.07;;;0.50;;
11618;SDS011;5865;48.776;9.280;2023-01-16T14:37:59;1.13;;;0.70;;
11618;SDS011;5865;48.776;9.280;2023-01-16T14:40:30;0.60;;;0.40;;
11618;SDS011;5865;48.776;9.280;2023-01-16T14:43:25;3.50;;;1.00;;
11618;SDS011;5865;48.776;9.280;2023-01-16T14:46:12;0.83;;;0.60;;
11618;SDS011;5865;48.776;9.280;2023-01-16T14:52:34;0.70;;;0.70;;
11618;SDS011;5865;48.776;9.280;2023-01-16T14:55:26;1.60;;;1.00;;
11618;SDS011;5865;48.776;9.280;2023-01-16T14:58:00;1.20;;;0.80;;
11618;SDS011;5865;48.776;9.280;2023-01-16T15:00:29;0.80;;;0.70;;
11618;SDS011;5865;48.776;9.280;2023-01-16T15:02:57;1.60;;;0.60;;
11618;SDS011;5865;48.776;9.280;2023-01-16T15:05:29;0.90;;;0.60;;
11618;SDS011;5865;48.776;9.280;2023-01-16T15:08:14;0.90;;;0.60;;
11618;SDS011;5865;48.776;9.280;2023-01-16T15:10:46;0.77;;;0.70;;
11618;SDS011;5865;48.776;9.280;2023-01-16T15:13:18;0.63;;;0.60;;
11618;SDS011;5865;48.776;9.280;2023-01-16T15:15:48;1.00;;;0.77;;
11618;SDS011;5865;48.776;9.280;2023-01-16T15:18:19;2.13;;;0.97;;
11618;SDS011;5865;48.776;9.280;2023-01-16T15:21:08;0.83;;;0.73;;
11618;SDS011;5865;48.776;9.280;2023-01-16T15:23:57;0.67;;;0.67;;
11618;SDS011;5865;48.776;9.280;2023-01-16T15:26:28;1.27;;;0.90;;
11618;SDS011;5865;48.776;9.280;2023-01-16T15:29:19;1.00;;;0.70;;
11618;SDS011;5865;48.776;9.280;2023-01-16T15:31:56;0.70;;;0.70;;
11618;SDS011;5865;48.776;9.280;2023-01-16T15:34:29;1.00;;;0.80;;
11618;SDS011;5865;48.776;9.280;2023-01-16T15:36:57;0.93;;;0.70;;
11618;SDS011;5865;48.776;9.280;2023-01-16T15:39:31;1.13;;;0.83;;
11618;SDS011;5865;48.776;9.280;2023-01-16T15:42:10;0.63;;;0.63;;
11618;SDS011;5865;48.776;9.280;2023-01-16T15:44:57;1.00;;;0.70;;
11618;SDS011;5865;48.776;9.280;2023-01-16T15:47:55;0.60;;;0.57;;
11618;SDS011;5865;48.776;9.280;2023-01-16T15:50:44;0.53;;;0.53;;
11618;SDS011;5865;48.776;9.280;2023-01-16T15:53:18;0.67;;;0.67;;
11618;SDS011;5865;48.776;9.280;2023-01-16T15:55:48;0.60;;;0.60;;
11618;SDS011;5865;48.776;9.280;2023-01-16T15:58:20;0.80;;;0.73;;
11618;SDS011;5865;48.776;9.280;2023-01-16T16:00:54;0.93;;;0.70;;
11618;SDS011;5865;48.776;9.280;2023-01-16T16:03:24;0.63;;;0.50;;
11618;SDS011;5865;48.776;9.280;2023-01-16T16:05:58;1.00;;;0.60;;
11618;SDS011;5865;48.776;9.280;2023-01-16T16:08:30;2.23;;;0.87;;
11618;SDS011;5865;48.776;9.280;2023-01-16T16:11:00;0.53;;;0.50;;
11618;SDS011;5865;48.776;9.280;2023-01-16T16:13:48;0.73;;;0.60;;